Time;durP1;ratioP1;P1;durP2;ratioP2;P2;SDS_P1;SDS_P2;PMS_P1;PMS_P2;Temp;Humidity;BMP_temperature;BMP_pressure;BME280_temperature;BME280_humidity;BME280_pressure;Samples;Min_cycle;Max_cycle;Signal;HPM_P1;HPM_P2
2022/11/02 00:01:39;;;;;;;14.65;2.60;;;;;;;13.68;81.56;101215.13;5011142;28;20116;-69
2022/11/02 00:04:04;;;;;;;12.95;2.30;;;;;;;13.68;81.36;101210.53;5014017;28;20026;-69
2022/11/02 00:06:30;;;;;;;14.73;2.97;;;;;;;13.71;80.06;101211.91;5021810;28;20364;-69
2022/11/02 00:08:55;;;;;;;12.45;2.70;;;;;;;13.69;80.26;101212.16;5031333;28;20112;-69
2022/11/02 00:11:20;;;;;;;11.25;2.28;;;;;;;13.70;80.71;101215.72;5019046;28;20579;-69
2022/11/02 00:13:45;;;;;;;13.98;2.42;;;;;;;13.71;80.31;101220.09;5013652;28;20169;-69
2022/11/02 00:16:14;;;;;;;10.25;2.65;;;;;;;13.70;80.09;101211.09;5013794;28;20025;-69
2022/11/02 00:18:41;;;;;;;11.38;2.40;;;;;;;13.78;79.28;101215.34;5019369;28;20021;-69
2022/11/02 00:21:06;;;;;;;12.63;2.80;;;;;;;13.74;79.29;101222.31;5032253;28;20346;-69
2022/11/02 00:23:32;;;;;;;10.23;2.40;;;;;;;13.74;78.80;101216.88;5033097;28;20025;-69
2022/11/02 00:26:00;;;;;;;12.35;2.67;;;;;;;13.80;78.26;101224.13;5033393;28;20512;-69
2022/11/02 00:28:27;;;;;;;13.60;2.47;;;;;;;13.81;77.50;101220.31;5031818;28;20037;-69
2022/11/02 00:30:52;;;;;;;11.70;2.40;;;;;;;13.78;77.03;101210.75;5033102;28;20032;-70
2022/11/02 00:33:17;;;;;;;13.93;3.05;;;;;;;13.83;77.31;101220.94;5031997;28;20029;-69
2022/11/02 00:35:44;;;;;;;16.05;2.63;;;;;;;13.83;76.84;101210.88;5032910;28;20063;-69
2022/11/02 00:38:10;;;;;;;13.73;2.38;;;;;;;13.85;75.51;101221.50;5031000;28;20029;-69
2022/11/02 00:40:35;;;;;;;14.48;2.72;;;;;;;13.88;75.46;101220.22;5013198;28;20022;-69
2022/11/02 00:43:00;;;;;;;19.48;2.55;;;;;;;13.87;75.49;101222.09;5045120;28;20022;-69
2022/11/02 00:45:25;;;;;;;13.38;2.63;;;;;;;13.88;75.32;101222.94;5021539;28;20087;-69
2022/11/02 00:47:51;;;;;;;13.05;2.40;;;;;;;13.87;75.23;101226.72;5032124;28;20412;-69
2022/11/02 00:50:16;;;;;;;20.63;3.17;;;;;;;13.79;75.34;101228.72;5030728;28;20108;-69
2022/11/02 00:52:41;;;;;;;14.98;2.17;;;;;;;13.79;75.02;101219.75;5031824;28;20029;-69
2022/11/02 00:55:09;;;;;;;18.75;2.63;;;;;;;13.71;74.90;101241.84;5031656;28;20101;-69
2022/11/02 00:57:35;;;;;;;17.17;2.40;;;;;;;13.70;74.13;101234.75;5032098;28;20029;-69
2022/11/02 01:00:00;;;;;;;9.80;1.80;;;;;;;13.70;72.94;101227.44;5031589;28;20025;-69
2022/11/02 01:02:26;;;;;;;5.47;1.40;;;;;;;13.63;72.55;101224.00;5030298;28;20388;-69
2022/11/02 01:04:51;;;;;;;14.40;2.25;;;;;;;13.60;72.69;101241.63;5024470;28;20452;-69
2022/11/02 01:07:16;;;;;;;11.13;2.55;;;;;;;13.52;73.89;101238.41;5013123;28;20040;-69
2022/11/02 01:09:41;;;;;;;15.18;2.20;;;;;;;13.50;74.67;101240.53;5012548;28;20025;-69
2022/11/02 01:12:07;;;;;;;11.55;2.47;;;;;;;13.54;73.84;101249.88;5012927;28;20021;-69
2022/11/02 01:14:32;;;;;;;14.35;2.47;;;;;;;13.41;74.71;101259.09;5023881;28;20033;-69
2022/11/02 01:16:58;;;;;;;13.68;2.40;;;;;;;13.41;72.48;101259.91;5028278;28;20030;-69
2022/11/02 01:19:24;;;;;;;14.63;2.88;;;;;;;13.36;72.76;101267.94;5032394;28;20021;-69
2022/11/02 01:21:49;;;;;;;9.38;2.42;;;;;;;13.36;72.08;101273.38;5032614;28;20045;-69
2022/11/02 01:24:15;;;;;;;16.42;2.75;;;;;;;13.32;72.46;101265.91;5032310;28;20025;-69
2022/11/02 01:26:40;;;;;;;15.75;2.45;;;;;;;13.26;72.86;101271.19;5031552;28;20037;-69
2022/11/02 01:29:05;;;;;;;10.02;2.47;;;;;;;13.24;72.69;101272.47;5032222;28;20038;-69
2022/11/02 01:31:30;;;;;;;14.43;2.63;;;;;;;13.20;72.96;101265.88;5032445;28;20056;-69
2022/11/02 01:33:56;;;;;;;9.13;2.17;;;;;;;13.18;73.02;101268.81;5032242;28;20026;-69
2022/11/02 01:36:21;;;;;;;11.10;2.60;;;;;;;13.13;73.14;101274.09;5030857;28;20404;-69
2022/11/02 01:38:48;;;;;;;13.05;2.50;;;;;;;13.08;73.61;101271.25;5031483;28;20106;-69
2022/11/02 01:41:14;;;;;;;9.65;2.38;;;;;;;13.07;73.32;101269.59;5032350;28;20025;-69
2022/11/02 01:43:43;;;;;;;8.98;2.15;;;;;;;13.00;73.82;101285.16;5032166;28;20029;-69
2022/11/02 01:46:11;;;;;;;9.88;1.92;;;;;;;13.03;73.06;101281.97;5024301;28;20116;-69
2022/11/02 01:48:46;;;;;;;10.85;2.40;;;;;;;12.92;74.42;101279.00;5012619;28;20026;-69
2022/11/02 01:51:18;;;;;;;10.35;2.20;;;;;;;12.89;73.58;101286.78;5012495;28;20018;-69
2022/11/02 01:53:46;;;;;;;6.32;1.92;;;;;;;12.90;74.04;101280.28;5011051;28;20124;-69
2022/11/02 01:56:16;;;;;;;10.07;2.28;;;;;;;12.89;73.73;101295.78;5020294;28;20368;-69
2022/11/02 01:58:45;;;;;;;11.23;1.83;;;;;;;12.86;74.39;101279.94;5027146;28;20432;-69
2022/11/02 02:01:10;;;;;;;11.85;2.38;;;;;;;12.86;74.53;101282.66;5026224;28;20035;-69
2022/11/02 02:03:37;;;;;;;8.43;1.90;;;;;;;12.86;74.55;101285.38;5032243;28;20057;-69
2022/11/02 02:06:10;;;;;;;8.52;2.20;;;;;;;12.86;74.99;101279.09;5031986;28;20055;-69
2022/11/02 02:08:42;;;;;;;8.80;2.08;;;;;;;12.83;75.20;101296.69;5029557;28;20132;-69
2022/11/02 02:11:42;;;;;;;6.93;1.90;;;;;;;12.90;74.91;101291.16;5031826;28;20116;-69
2022/11/02 02:14:11;;;;;;;9.07;2.17;;;;;;;12.79;75.74;101286.50;4993405;28;20026;-69
2022/11/02 02:17:00;;;;;;;14.05;2.70;;;;;;;12.74;76.63;101277.16;5023179;28;20124;-70
2022/11/02 02:19:31;;;;;;;10.23;2.22;;;;;;;12.69;76.65;101278.91;5030340;28;20014;-69
2022/11/02 02:22:20;;;;;;;12.38;2.65;;;;;;;12.68;77.04;101279.94;5031870;28;20517;-69
2022/11/02 02:25:13;;;;;;;10.38;2.35;;;;;;;12.62;77.95;101287.16;5031817;28;20024;-75
2022/11/02 02:27:47;;;;;;;11.38;2.40;;;;;;;12.60;77.83;101291.94;5031812;28;20049;-69
2022/11/02 02:30:14;;;;;;;13.73;2.40;;;;;;;12.53;79.06;101286.63;5013247;28;20069;-69
2022/11/02 02:32:48;;;;;;;14.20;2.33;;;;;;;12.56;78.59;101280.72;5015567;28;20080;-69
2022/11/02 02:35:25;;;;;;;12.15;2.53;;;;;;;12.56;78.68;101297.03;5015717;28;20119;-69
2022/11/02 02:37:59;;;;;;;12.52;2.45;;;;;;;12.50;79.70;101286.22;5015588;28;20510;-69
2022/11/02 02:40:33;;;;;;;10.25;2.45;;;;;;;12.47;80.01;101284.81;5017863;28;20033;-69
2022/11/02 02:43:12;;;;;;;11.30;2.53;;;;;;;12.47;80.06;101283.97;5028664;28;20033;-69
2022/11/02 02:45:46;;;;;;;14.05;2.92;;;;;;;12.46;79.58;101295.91;5034964;28;20028;-69
2022/11/02 02:48:16;;;;;;;11.95;2.78;;;;;;;12.40;79.80;101293.00;5031644;28;20028;-69
2022/11/02 02:50:47;;;;;;;12.53;2.30;;;;;;;12.40;80.21;101297.63;5015234;28;20026;-69
2022/11/02 02:53:15;;;;;;;12.95;2.92;;;;;;;12.38;80.13;101295.13;5015500;28;20468;-69
2022/11/02 02:55:44;;;;;;;12.40;2.35;;;;;;;12.41;79.81;101299.28;5022488;28;20068;-69
2022/11/02 02:58:17;;;;;;;11.13;2.20;;;;;;;12.37;79.71;101295.38;5031736;28;20029;-69
2022/11/02 03:00:43;;;;;;;11.30;2.53;;;;;;;12.31;79.91;101297.09;5012803;28;20036;-69
2022/11/02 03:03:09;;;;;;;13.45;2.28;;;;;;;12.33;79.87;101302.28;5015285;28;20026;-69
2022/11/02 03:05:36;;;;;;;14.07;3.30;;;;;;;12.35;79.02;101313.75;5030623;28;20025;-69
2022/11/02 03:08:09;;;;;;;11.77;3.05;;;;;;;12.34;79.31;101301.25;5032935;28;20032;-69
2022/11/02 03:10:43;;;;;;;19.52;3.20;;;;;;;12.34;79.28;101314.81;5015061;28;20101;-69
2022/11/02 03:13:31;;;;;;;11.07;2.95;;;;;;;12.38;78.67;101307.88;5015323;28;20014;-69
2022/11/02 03:16:02;;;;;;;13.45;2.72;;;;;;;12.30;78.66;101309.00;5014860;28;20097;-69
2022/11/02 03:18:43;;;;;;;15.02;2.65;;;;;;;12.30;78.40;101319.03;5019379;28;20484;-69
2022/11/02 03:21:30;;;;;;;11.15;2.67;;;;;;;12.37;77.24;101307.03;5034703;28;20021;-69
2022/11/02 03:24:13;;;;;;;21.25;3.20;;;;;;;12.36;77.54;101315.41;5034488;28;20029;-69
2022/11/02 03:26:47;;;;;;;14.52;2.78;;;;;;;12.35;77.35;101317.31;5033676;28;20358;-69
2022/11/02 03:29:15;;;;;;;15.95;3.28;;;;;;;12.37;77.00;101319.78;5023141;28;20071;-69
2022/11/02 03:31:57;;;;;;;12.10;2.72;;;;;;;12.32;77.67;101317.75;5029662;28;20079;-69
2022/11/02 03:34:29;;;;;;;16.10;2.97;;;;;;;12.35;76.82;101328.16;5034087;28;20033;-69
2022/11/02 03:37:07;;;;;;;16.42;2.92;;;;;;;12.35;77.00;101325.44;5034091;28;20053;-69
2022/11/02 03:39:43;;;;;;;14.68;3.08;;;;;;;12.38;77.25;101322.28;5033829;28;20037;-69
2022/11/02 03:42:12;;;;;;;17.20;2.67;;;;;;;12.35;77.13;101321.88;5032713;28;20443;-69
2022/11/02 03:44:39;;;;;;;16.90;3.70;;;;;;;12.30;77.52;101330.69;5034206;28;20033;-69
2022/11/02 03:47:09;;;;;;;13.43;2.92;;;;;;;12.27;77.83;101335.75;5034198;28;20045;-69
2022/11/02 03:49:38;;;;;;;15.18;3.33;;;;;;;12.28;78.01;101340.13;5031349;28;20365;-69
2022/11/02 03:52:07;;;;;;;13.35;2.78;;;;;;;12.27;78.66;101336.56;5033755;28;20118;-69
2022/11/02 03:54:41;;;;;;;15.88;3.08;;;;;;;12.26;78.44;101350.38;5034007;28;20461;-69
2022/11/02 03:57:11;;;;;;;15.63;3.30;;;;;;;12.24;78.92;101358.72;5034059;28;20021;-69
2022/11/02 03:59:36;;;;;;;17.30;3.22;;;;;;;12.28;78.75;101353.72;5019879;28;20450;-69
2022/11/02 04:02:02;;;;;;;19.20;3.92;;;;;;;12.25;79.29;101354.97;5011515;28;20037;-69
2022/11/02 04:04:28;;;;;;;18.42;3.47;;;;;;;12.20;80.41;101363.78;5014086;28;20043;-69
2022/11/02 04:06:54;;;;;;;25.35;3.88;;;;;;;12.17;81.18;101360.69;5013802;28;20025;-69
2022/11/02 04:09:19;;;;;;;17.98;3.10;;;;;;;12.18;81.18;101370.47;5015636;28;20037;-69
2022/11/02 04:14:38;;;;;;;18.88;3.22;;;;;;;12.19;81.74;101375.69;5033677;28;20068;-69
2022/11/02 04:19:52;;;;;;;15.80;2.80;;;;;;;12.09;83.04;101371.81;5031081;28;20435;-69
2022/11/02 04:25:17;;;;;;;19.70;3.47;;;;;;;12.05;83.01;101380.41;5033000;28;20048;-69
2022/11/02 04:27:45;;;;;;;23.17;4.30;;;;;;;12.10;82.82;101396.00;5033443;28;20056;-69
2022/11/02 04:30:11;;;;;;;20.08;3.95;;;;;;;12.06;82.85;101378.50;5013655;28;20072;-69
2022/11/02 04:35:24;;;;;;;19.20;3.38;;;;;;;12.04;83.31;101403.16;5030834;28;20082;-69
2022/11/02 04:40:33;;;;;;;16.63;3.08;;;;;;;12.00;83.65;101425.50;5032516;28;20044;-69
2022/11/02 04:42:59;;;;;;;15.07;3.10;;;;;;;12.00;83.85;101425.50;5032940;28;20025;-69
2022/11/02 04:45:24;;;;;;;17.27;3.17;;;;;;;11.97;83.58;101434.94;5033102;28;20532;-69
2022/11/02 04:47:49;;;;;;;15.35;2.58;;;;;;;12.00;83.76;101430.94;5033103;28;20017;-69
2022/11/02 04:50:15;;;;;;;21.20;3.45;;;;;;;12.00;83.46;101442.63;5013726;28;20424;-69
2022/11/02 04:52:40;;;;;;;17.52;2.90;;;;;;;11.96;84.25;101443.31;5013220;28;20105;-69
2022/11/02 04:55:06;;;;;;;17.27;3.08;;;;;;;11.99;83.40;101448.28;5013238;28;20022;-69
2022/11/02 04:57:31;;;;;;;16.42;3.10;;;;;;;11.95;84.00;101437.03;5032737;28;20026;-69
2022/11/02 04:59:57;;;;;;;16.30;3.40;;;;;;;11.97;83.65;101450.38;5017381;28;20045;-69
2022/11/02 05:02:22;;;;;;;16.92;3.65;;;;;;;12.01;83.36;101457.84;5010629;28;20029;-69
2022/11/02 05:04:47;;;;;;;16.73;3.15;;;;;;;11.96;83.94;101454.16;5012801;28;20036;-69
2022/11/02 05:07:12;;;;;;;17.83;3.17;;;;;;;11.94;84.68;101467.06;5012829;28;20038;-69
2022/11/02 05:09:38;;;;;;;14.07;2.85;;;;;;;11.98;83.32;101465.59;5011694;28;20037;-69
2022/11/02 05:12:04;;;;;;;20.73;3.35;;;;;;;11.95;83.77;101468.75;5012689;28;20050;-71
2022/11/02 05:14:30;;;;;;;13.25;3.28;;;;;;;11.96;83.62;101470.41;5012973;28;20029;-69
2022/11/02 05:16:56;;;;;;;14.57;3.05;;;;;;;12.00;81.84;101479.75;5012722;28;20025;-69
2022/11/02 05:19:22;;;;;;;21.55;2.97;;;;;;;11.96;82.39;101475.84;5030721;28;20029;-69
2022/11/02 05:21:47;;;;;;;15.43;3.17;;;;;;;11.99;82.02;101486.25;5030798;28;20113;-71
2022/11/02 05:24:13;;;;;;;12.20;2.78;;;;;;;11.97;82.00;101491.03;5032368;28;20032;-71
2022/11/02 05:26:38;;;;;;;13.65;3.25;;;;;;;11.94;81.89;101508.63;5032555;28;20025;-69
2022/11/02 05:29:03;;;;;;;16.38;3.08;;;;;;;11.96;81.20;101502.97;5024471;28;20056;-69
2022/11/02 05:31:29;;;;;;;14.60;2.78;;;;;;;11.90;82.45;101510.06;5013005;28;20381;-69
2022/11/02 05:33:54;;;;;;;13.65;2.90;;;;;;;11.85;82.42;101521.56;5012525;28;20434;-70
2022/11/02 05:36:19;;;;;;;12.05;2.83;;;;;;;11.82;82.29;101513.84;5012662;28;20029;-69
2022/11/02 05:38:44;;;;;;;14.18;3.00;;;;;;;11.79;82.67;101514.28;5012654;28;20460;-69
2022/11/02 05:41:10;;;;;;;12.02;3.08;;;;;;;11.78;81.88;101522.66;5024945;28;20037;-70
2022/11/02 05:43:35;;;;;;;13.25;2.83;;;;;;;11.77;82.38;101524.50;5032354;28;20540;-69
2022/11/02 05:46:02;;;;;;;16.92;2.97;;;;;;;11.74;82.55;101533.06;5032170;28;20033;-70
2022/11/02 05:48:30;;;;;;;15.43;2.75;;;;;;;11.69;83.46;101536.44;5028918;28;20057;-70
2022/11/02 05:50:57;;;;;;;15.43;3.42;;;;;;;11.68;83.47;101542.06;5012091;28;20466;-70
2022/11/02 05:53:23;;;;;;;12.60;3.00;;;;;;;11.60;83.78;101531.47;5012462;28;20057;-69
2022/11/02 05:55:49;;;;;;;15.75;2.80;;;;;;;11.56;84.71;101541.91;5012559;28;20026;-69
2022/11/02 05:58:14;;;;;;;18.35;3.70;;;;;;;11.60;84.25;101545.03;5012287;28;20052;-70
2022/11/02 06:00:39;;;;;;;15.18;2.80;;;;;;;11.51;85.32;101545.25;5029450;28;20457;-70
2022/11/02 06:03:05;;;;;;;13.52;2.95;;;;;;;11.46;86.50;101550.50;5031381;28;20112;-69
2022/11/02 06:05:31;;;;;;;11.85;2.70;;;;;;;11.43;86.87;101553.66;5032098;28;20511;-70
2022/11/02 06:07:58;;;;;;;15.02;3.05;;;;;;;11.41;87.54;101555.72;5035745;28;20131;-69
2022/11/02 06:10:24;;;;;;;15.25;3.35;;;;;;;11.39;87.80;101565.94;5033937;28;20033;-69
2022/11/02 06:13:00;;;;;;;15.98;2.75;;;;;;;11.42;87.91;101568.22;5035785;28;20107;-69
2022/11/02 06:15:27;;;;;;;15.93;3.45;;;;;;;11.32;89.03;101571.41;5035877;28;20377;-69
2022/11/02 06:17:53;;;;;;;14.65;3.15;;;;;;;11.32;89.15;101574.09;5035864;28;20029;-69
2022/11/02 06:20:19;;;;;;;15.90;2.88;;;;;;;11.25;90.42;101583.28;5034790;28;20037;-69
2022/11/02 06:22:45;;;;;;;17.83;3.00;;;;;;;11.20;91.86;101588.50;5035705;28;20032;-69
2022/11/02 06:25:11;;;;;;;13.00;2.90;;;;;;;11.18;91.85;101584.13;5033921;28;20029;-69
2022/11/02 06:27:38;;;;;;;15.50;3.42;;;;;;;11.17;92.72;101597.88;5034371;28;20408;-69
2022/11/02 06:30:04;;;;;;;14.63;3.13;;;;;;;11.14;93.12;101592.88;5020827;28;20042;-69
2022/11/02 06:32:30;;;;;;;13.02;2.92;;;;;;;11.11;93.73;101605.00;5014346;28;20405;-69
2022/11/02 06:34:55;;;;;;;17.33;2.88;;;;;;;11.09;93.78;101617.88;5015536;28;20032;-69
2022/11/02 06:37:21;;;;;;;10.63;2.65;;;;;;;11.04;94.63;101625.00;5015552;28;20084;-69
2022/11/02 06:39:47;;;;;;;15.50;3.25;;;;;;;11.05;94.70;101627.50;5015735;28;20026;-69
2022/11/02 06:42:12;;;;;;;16.17;3.25;;;;;;;11.10;93.17;101635.00;5015422;28;20029;-69
2022/11/02 06:44:37;;;;;;;18.08;3.08;;;;;;;10.99;95.43;101647.25;5014357;28;20030;-69
2022/11/02 06:47:03;;;;;;;14.32;3.10;;;;;;;11.02;94.80;101643.31;5049686;28;20052;-69
2022/11/02 06:49:28;;;;;;;15.02;2.97;;;;;;;10.95;95.79;101654.97;5026389;28;20021;-69
2022/11/02 06:51:53;;;;;;;13.93;2.85;;;;;;;10.94;96.18;101663.31;5015412;28;20053;-69
2022/11/02 06:54:18;;;;;;;12.43;3.28;;;;;;;10.95;96.07;101676.66;5015186;28;20025;-69
2022/11/02 06:56:44;;;;;;;13.27;2.60;;;;;;;10.92;95.99;101676.22;5015365;28;20022;-69
2022/11/02 06:59:09;;;;;;;16.30;3.30;;;;;;;10.90;96.40;101689.13;5015119;28;20029;-70
2022/11/02 07:01:34;;;;;;;15.18;3.22;;;;;;;10.89;95.84;101688.31;5012576;28;20029;-69
2022/11/02 07:04:01;;;;;;;14.38;3.05;;;;;;;10.90;96.33;101697.25;5013737;28;20053;-70
2022/11/02 07:06:26;;;;;;;13.60;2.75;;;;;;;10.87;96.42;101692.25;5018867;28;20100;-70
2022/11/02 07:08:51;;;;;;;15.00;3.03;;;;;;;10.92;95.44;101708.72;5034607;28;20163;-70
2022/11/02 07:11:17;;;;;;;15.85;3.00;;;;;;;10.88;96.34;101708.28;5025319;28;20037;-70
2022/11/02 07:13:42;;;;;;;15.40;3.20;;;;;;;10.86;97.69;101714.97;5015087;28;20081;-70
2022/11/02 07:16:08;;;;;;;14.27;2.72;;;;;;;10.87;97.40;101722.03;5015814;28;20056;-70
2022/11/02 07:18:33;;;;;;;13.50;2.85;;;;;;;10.86;97.87;101725.81;5033737;28;20028;-69
2022/11/02 07:20:58;;;;;;;12.95;2.90;;;;;;;10.89;96.81;101739.75;5034571;28;20025;-70
2022/11/02 07:23:24;;;;;;;16.30;3.15;;;;;;;10.92;96.64;101741.22;5034681;28;20017;-70
2022/11/02 07:25:49;;;;;;;16.38;3.10;;;;;;;10.90;97.36;101740.56;5033974;28;20029;-69
2022/11/02 07:28:14;;;;;;;15.48;3.08;;;;;;;10.88;97.99;101748.91;5034950;28;20062;-70
2022/11/02 07:30:40;;;;;;;13.98;3.47;;;;;;;10.91;97.46;101755.78;5013453;28;20104;-70
2022/11/02 07:33:05;;;;;;;16.00;3.67;;;;;;;10.93;97.83;101751.84;5013053;28;20030;-69
2022/11/02 07:35:32;;;;;;;19.85;2.97;;;;;;;10.96;97.79;101761.41;5014506;28;20037;-69
2022/11/02 07:38:01;;;;;;;18.88;2.85;;;;;;;10.94;99.09;101760.81;5014551;28;20022;-70
2022/11/02 07:40:28;;;;;;;15.90;3.08;;;;;;;10.96;99.27;101762.28;5014580;28;20137;-69
2022/11/02 07:42:53;;;;;;;17.67;3.08;;;;;;;10.97;99.28;101754.97;5025422;28;20052;-69
2022/11/02 07:45:22;;;;;;;14.55;2.80;;;;;;;10.97;99.28;101768.50;5033809;28;20072;-70
2022/11/02 07:47:48;;;;;;;16.13;3.17;;;;;;;10.97;100.00;101776.63;5024035;28;20469;-72
2022/11/02 07:50:16;;;;;;;14.73;3.20;;;;;;;11.02;99.63;101776.88;5014186;28;20030;-72
2022/11/02 07:52:46;;;;;;;17.08;3.30;;;;;;;11.02;100.00;101774.16;5030815;28;20030;-72
2022/11/02 07:55:13;;;;;;;17.33;3.78;;;;;;;11.05;99.99;101781.03;5033431;28;20420;-71
2022/11/02 07:57:38;;;;;;;16.58;3.00;;;;;;;11.08;99.46;101789.59;5033948;28;20112;-71
2022/11/02 08:00:04;;;;;;;13.40;3.45;;;;;;;11.03;100.00;101785.81;5033483;28;20105;-72
2022/11/02 08:02:30;;;;;;;12.70;2.70;;;;;;;11.06;100.00;101788.94;5025334;28;20021;-72
2022/11/02 08:04:55;;;;;;;14.85;3.60;;;;;;;11.10;99.93;101776.66;5032567;28;20511;-72
2022/11/02 08:07:20;;;;;;;15.45;2.83;;;;;;;11.11;100.00;101785.63;5033594;28;20079;-72
2022/11/02 08:09:45;;;;;;;14.93;3.35;;;;;;;11.12;99.88;101785.41;5033482;28;20048;-72
2022/11/02 08:12:11;;;;;;;13.15;2.78;;;;;;;11.14;99.71;101787.91;5033416;28;20021;-79
2022/11/02 08:14:36;;;;;;;17.15;2.97;;;;;;;11.16;99.83;101792.09;5020532;28;20508;-70
2022/11/02 08:17:01;;;;;;;17.38;3.40;;;;;;;11.18;98.98;101784.59;5013570;28;20021;-70
2022/11/02 08:19:27;;;;;;;14.55;2.92;;;;;;;11.20;100.00;101789.78;5028820;28;20072;-80
2022/11/02 08:21:54;;;;;;;15.57;3.13;;;;;;;11.23;100.00;101796.69;5013869;28;20068;-71
2022/11/02 08:24:20;;;;;;;13.45;3.50;;;;;;;11.29;98.56;101801.28;5033728;28;20029;-73
2022/11/02 08:26:45;;;;;;;18.13;3.63;;;;;;;11.29;99.07;101785.03;5032073;28;20041;-73
2022/11/02 08:29:10;;;;;;;14.52;3.13;;;;;;;11.34;98.42;101806.94;5021161;28;20042;-76
2022/11/02 08:31:36;;;;;;;14.45;3.05;;;;;;;11.34;98.62;101805.03;5025080;28;20078;-71
2022/11/02 08:34:01;;;;;;;14.13;3.20;;;;;;;11.37;96.47;101803.81;5032976;28;20449;-72
2022/11/02 08:36:26;;;;;;;14.68;3.45;;;;;;;11.38;96.44;101802.75;5026191;28;20376;-71
2022/11/02 08:38:51;;;;;;;18.15;3.30;;;;;;;11.44;93.95;101801.09;5033243;28;20104;-72
2022/11/02 08:41:17;;;;;;;14.77;3.10;;;;;;;11.46;93.50;101813.41;5033129;28;20472;-72
2022/11/02 08:43:42;;;;;;;14.80;3.25;;;;;;;11.52;93.92;101806.31;5032891;28;20036;-72
2022/11/02 08:46:07;;;;;;;16.65;3.17;;;;;;;11.52;92.18;101815.28;5032160;28;20030;-72
2022/11/02 08:48:33;;;;;;;17.10;3.50;;;;;;;11.59;91.89;101828.00;5029327;28;20057;-72
2022/11/02 08:50:58;;;;;;;16.60;3.10;;;;;;;11.61;91.91;101825.91;5012010;28;20022;-72
2022/11/02 08:53:23;;;;;;;16.70;3.40;;;;;;;11.62;92.61;101833.00;5012816;28;20123;-71
2022/11/02 08:55:49;;;;;;;14.65;3.22;;;;;;;11.66;88.79;101831.56;5012004;28;20380;-71
2022/11/02 08:58:14;;;;;;;12.40;2.70;;;;;;;11.68;86.20;101824.91;5013006;28;20437;-71
2022/11/02 09:00:39;;;;;;;14.40;2.80;;;;;;;11.70;84.72;101830.94;5010741;28;20100;-71
2022/11/02 09:03:09;;;;;;;16.92;2.85;;;;;;;11.76;86.03;101831.97;5013641;28;20428;-71
2022/11/02 09:05:37;;;;;;;18.70;3.13;;;;;;;11.77;86.37;101835.50;5032137;28;20036;-71
2022/11/02 09:08:06;;;;;;;17.13;4.30;;;;;;;11.81;85.55;101831.34;5032803;28;20037;-71
2022/11/02 09:10:34;;;;;;;13.52;3.63;;;;;;;11.80;85.89;101838.63;5031806;28;20061;-73
2022/11/02 09:13:01;;;;;;;17.77;3.10;;;;;;;11.83;88.41;101837.38;5032592;28;20510;-71
2022/11/02 09:15:27;;;;;;;11.82;2.95;;;;;;;11.86;87.20;101834.25;5032467;28;20025;-72
2022/11/02 09:17:52;;;;;;;15.52;3.35;;;;;;;11.90;85.80;101843.66;5027858;28;20029;-72
2022/11/02 09:20:19;;;;;;;19.65;3.90;;;;;;;11.94;85.16;101838.66;5040321;28;20033;-72
2022/11/02 09:22:45;;;;;;;17.73;3.05;;;;;;;11.97;86.13;101847.22;5032228;28;20471;-72
2022/11/02 09:25:11;;;;;;;15.60;3.53;;;;;;;12.00;85.23;101846.81;5031554;28;20029;-73
2022/11/02 09:27:37;;;;;;;17.58;3.38;;;;;;;12.03;84.75;101845.53;5032218;28;20029;-72
2022/11/02 09:30:03;;;;;;;17.95;3.70;;;;;;;12.04;83.60;101847.22;5032133;28;20354;-72
2022/11/02 09:32:32;;;;;;;22.65;3.83;;;;;;;12.06;85.84;101850.53;5027176;28;20160;-72
2022/11/02 09:35:00;;;;;;;14.00;3.08;;;;;;;12.13;84.73;101861.41;5031209;28;20029;-72
2022/11/02 09:37:27;;;;;;;23.45;3.60;;;;;;;12.18;85.90;101859.75;5031141;28;20034;-72
2022/11/02 09:39:52;;;;;;;20.73;3.95;;;;;;;12.27;84.08;101868.47;5032881;28;20033;-72
2022/11/02 09:42:43;;;;;;;16.88;3.55;;;;;;;12.36;83.09;101871.78;5036010;28;20029;-71
2022/11/02 09:45:15;;;;;;;17.83;3.90;;;;;;;12.31;83.04;101866.19;5035945;28;20140;-72
2022/11/02 09:47:46;;;;;;;17.65;3.45;;;;;;;12.32;81.47;101857.81;5035761;28;20030;-72
2022/11/02 09:50:17;;;;;;;17.52;3.47;;;;;;;12.39;82.38;101857.78;5034834;28;20025;-72
2022/11/02 09:52:46;;;;;;;18.75;3.35;;;;;;;12.39;82.08;101872.22;5032056;28;20086;-72
2022/11/02 09:55:18;;;;;;;18.55;3.30;;;;;;;12.46;81.94;101874.91;5034614;28;20029;-72
2022/11/02 09:57:47;;;;;;;20.48;3.50;;;;;;;12.47;77.80;101873.88;5035844;28;20025;-72
2022/11/02 10:00:14;;;;;;;15.95;3.15;;;;;;;12.44;77.76;101866.16;5035541;28;20542;-72
2022/11/02 10:03:01;;;;;;;15.73;2.95;;;;;;;12.50;77.92;101872.59;5033410;28;20056;-72
2022/11/02 10:05:26;;;;;;;19.25;3.42;;;;;;;12.52;79.83;101882.19;5035597;28;20119;-80
2022/11/02 10:08:16;;;;;;;15.90;2.88;;;;;;;12.63;78.08;101888.03;5015788;28;20030;-72
2022/11/02 10:11:04;;;;;;;16.80;3.72;;;;;;;12.70;77.10;101878.81;5015941;28;20034;-76
2022/11/02 10:14:07;;;;;;;18.10;3.15;;;;;;;12.65;76.44;101892.22;5017009;28;20034;-74
2022/11/02 10:16:36;;;;;;;16.35;2.95;;;;;;;12.70;75.72;101895.09;5030273;28;20469;-74
2022/11/02 10:19:16;;;;;;;19.42;3.38;;;;;;;12.73;75.88;101896.56;5014299;28;20030;-74
2022/11/02 10:21:45;;;;;;;23.35;3.67;;;;;;;12.79;74.91;101890.28;5024592;28;20072;-74
2022/11/02 10:24:22;;;;;;;17.10;3.10;;;;;;;12.82;73.64;101898.00;5035000;28;20029;-74
2022/11/02 10:26:48;;;;;;;15.55;2.95;;;;;;;12.80;72.87;101905.50;5034340;28;20089;-74
2022/11/02 10:29:24;;;;;;;16.50;3.33;;;;;;;12.82;74.02;101905.28;5033576;28;20077;-74
2022/11/02 10:31:50;;;;;;;16.23;2.97;;;;;;;12.85;73.06;101897.56;5035314;28;20103;-72
2022/11/02 10:34:22;;;;;;;17.60;3.30;;;;;;;12.86;71.63;101901.97;5034619;28;20453;-73
2022/11/02 10:37:22;;;;;;;18.05;3.95;;;;;;;12.93;73.77;101897.31;5034971;28;20122;-72
2022/11/02 10:39:59;;;;;;;14.75;2.78;;;;;;;12.96;71.30;101903.38;5034473;28;20510;-72
2022/11/02 10:42:33;;;;;;;16.88;2.90;;;;;;;12.96;70.62;101898.78;5033794;28;20029;-72
2022/11/02 10:45:07;;;;;;;18.17;3.72;;;;;;;12.94;69.61;101900.88;5034657;28;20029;-73
2022/11/02 10:47:51;;;;;;;16.92;3.53;;;;;;;12.92;70.05;101908.41;5033604;28;20422;-72
2022/11/02 10:50:26;;;;;;;15.40;2.97;;;;;;;13.05;69.36;101911.06;5032185;28;20617;-72
2022/11/02 10:52:51;;;;;;;15.73;2.92;;;;;;;13.08;69.18;101907.09;5030904;28;20060;-72
2022/11/02 10:55:26;;;;;;;13.00;2.83;;;;;;;13.14;67.85;101914.38;5028852;28;20053;-73
2022/11/02 10:57:55;;;;;;;11.73;2.78;;;;;;;13.17;66.15;101921.28;5033234;28;20030;-73
2022/11/02 11:00:32;;;;;;;13.35;3.00;;;;;;;13.19;66.66;101914.56;5021462;28;20374;-73
2022/11/02 11:03:07;;;;;;;12.65;2.80;;;;;;;13.26;65.85;101914.53;5013689;28;20373;-73
2022/11/02 11:05:36;;;;;;;14.88;2.67;;;;;;;13.24;66.10;101920.19;5014560;28;20034;-80
2022/11/02 11:08:02;;;;;;;13.43;2.33;;;;;;;13.26;65.45;101919.97;5029620;28;20076;-74
2022/11/02 11:10:32;;;;;;;12.80;2.63;;;;;;;13.30;63.10;101919.31;5034213;28;20084;-71
2022/11/02 11:12:57;;;;;;;11.68;2.85;;;;;;;13.27;63.33;101911.59;5032311;28;20037;-72
2022/11/02 11:15:29;;;;;;;11.30;2.80;;;;;;;13.32;62.85;101918.28;5024163;28;20021;-71
2022/11/02 11:17:55;;;;;;;9.35;2.60;;;;;;;13.34;64.21;101927.06;5034566;28;20029;-71
2022/11/02 11:20:35;;;;;;;17.98;3.33;;;;;;;13.42;65.33;101930.38;5030934;28;20025;-71
2022/11/02 11:23:20;;;;;;;21.13;3.38;;;;;;;13.57;64.82;101929.22;5022573;28;20064;-72
2022/11/02 11:26:03;;;;;;;13.02;2.80;;;;;;;13.60;63.19;101932.38;5032199;28;20026;-73
2022/11/02 11:28:36;;;;;;;14.20;3.25;;;;;;;13.57;63.40;101935.53;5033689;28;20025;-75
2022/11/02 11:31:06;;;;;;;12.80;2.78;;;;;;;13.60;63.79;101916.06;5034097;28;20064;-73
2022/11/02 11:33:39;;;;;;;13.68;2.95;;;;;;;13.62;63.86;101916.66;5033405;28;20364;-72
2022/11/02 11:36:07;;;;;;;10.88;2.53;;;;;;;13.59;63.45;101908.94;5033884;28;20482;-75
2022/11/02 11:38:32;;;;;;;15.48;2.75;;;;;;;13.60;64.04;101909.75;5028915;28;20031;-73